sensor_id;sensor_type;location;lat;lon;timestamp;P1;durP1;ratioP1;P2;durP2;ratioP2
3343;SDS011;1685;53.104;8.228;2022-09-01T00:01:09;1.40;;;1.30;;
3343;SDS011;1685;53.104;8.228;2022-09-01T00:03:38;1.80;;;1.40;;
3343;SDS011;1685;53.104;8.228;2022-09-01T00:06:06;5.00;;;1.63;;
3343;SDS011;1685;53.104;8.228;2022-09-01T00:08:34;2.60;;;1.30;;
3343;SDS011;1685;53.104;8.228;2022-09-01T00:11:02;3.00;;;1.70;;
3343;SDS011;1685;53.104;8.228;2022-09-01T00:13:29;1.90;;;1.80;;
3343;SDS011;1685;53.104;8.228;2022-09-01T00:15:57;2.27;;;1.70;;
3343;SDS011;1685;53.104;8.228;2022-09-01T00:18:24;4.50;;;3.10;;
3343;SDS011;1685;53.104;8.228;2022-09-01T00:20:51;1.53;;;1.43;;
3343;SDS011;1685;53.104;8.228;2022-09-01T00:23:19;1.87;;;1.70;;
3343;SDS011;1685;53.104;8.228;2022-09-01T00:25:46;1.80;;;1.70;;
3343;SDS011;1685;53.104;8.228;2022-09-01T00:28:14;2.07;;;1.77;;
3343;SDS011;1685;53.104;8.228;2022-09-01T00:30:41;1.50;;;1.40;;
3343;SDS011;1685;53.104;8.228;2022-09-01T00:33:08;1.43;;;1.33;;
3343;SDS011;1685;53.104;8.228;2022-09-01T00:35:34;6.00;;;2.23;;
3343;SDS011;1685;53.104;8.228;2022-09-01T00:38:01;2.50;;;1.70;;
3343;SDS011;1685;53.104;8.228;2022-09-01T00:40:28;1.80;;;1.70;;
3343;SDS011;1685;53.104;8.228;2022-09-01T00:42:55;1.60;;;1.50;;
3343;SDS011;1685;53.104;8.228;2022-09-01T00:45:23;3.87;;;1.50;;
3343;SDS011;1685;53.104;8.228;2022-09-01T00:47:50;2.10;;;1.33;;
3343;SDS011;1685;53.104;8.228;2022-09-01T00:50:18;3.23;;;1.63;;
3343;SDS011;1685;53.104;8.228;2022-09-01T00:52:46;1.40;;;1.30;;
3343;SDS011;1685;53.104;8.228;2022-09-01T00:55:18;1.77;;;1.67;;
3343;SDS011;1685;53.104;8.228;2022-09-01T00:57:48;7.20;;;1.70;;
3343;SDS011;1685;53.104;8.228;2022-09-01T01:00:16;3.03;;;1.67;;
3343;SDS011;1685;53.104;8.228;2022-09-01T01:02:46;1.47;;;1.40;;
3343;SDS011;1685;53.104;8.228;2022-09-01T01:05:14;1.77;;;1.67;;
3343;SDS011;1685;53.104;8.228;2022-09-01T01:07:41;1.50;;;1.40;;
3343;SDS011;1685;53.104;8.228;2022-09-01T01:10:11;1.97;;;1.40;;
3343;SDS011;1685;53.104;8.228;2022-09-01T01:12:40;1.70;;;1.60;;
3343;SDS011;1685;53.104;8.228;2022-09-01T01:15:09;3.23;;;1.50;;
3343;SDS011;1685;53.104;8.228;2022-09-01T01:17:37;1.30;;;1.30;;
3343;SDS011;1685;53.104;8.228;2022-09-01T01:20:06;6.40;;;1.33;;
3343;SDS011;1685;53.104;8.228;2022-09-01T01:22:54;2.83;;;1.57;;
3343;SDS011;1685;53.104;8.228;2022-09-01T01:25:33;1.60;;;1.50;;
3343;SDS011;1685;53.104;8.228;2022-09-01T01:28:03;1.27;;;1.20;;
3343;SDS011;1685;53.104;8.228;2022-09-01T01:30:36;1.40;;;1.30;;
3343;SDS011;1685;53.104;8.228;2022-09-01T01:33:04;1.80;;;1.70;;
3343;SDS011;1685;53.104;8.228;2022-09-01T01:35:32;2.07;;;1.50;;
3343;SDS011;1685;53.104;8.228;2022-09-01T01:38:00;1.87;;;1.77;;
3343;SDS011;1685;53.104;8.228;2022-09-01T01:40:29;1.57;;;1.50;;
3343;SDS011;1685;53.104;8.228;2022-09-01T01:42:57;1.93;;;1.50;;
3343;SDS011;1685;53.104;8.228;2022-09-01T01:45:25;1.50;;;1.40;;
3343;SDS011;1685;53.104;8.228;2022-09-01T01:47:53;2.27;;;1.60;;
3343;SDS011;1685;53.104;8.228;2022-09-01T01:50:22;1.63;;;1.53;;
3343;SDS011;1685;53.104;8.228;2022-09-01T01:52:50;2.00;;;1.40;;
3343;SDS011;1685;53.104;8.228;2022-09-01T01:55:18;1.50;;;1.40;;
3343;SDS011;1685;53.104;8.228;2022-09-01T01:57:47;1.63;;;1.53;;
3343;SDS011;1685;53.104;8.228;2022-09-01T02:00:18;2.30;;;1.57;;
3343;SDS011;1685;53.104;8.228;2022-09-01T02:02:47;1.53;;;1.43;;
3343;SDS011;1685;53.104;8.228;2022-09-01T02:05:18;2.03;;;1.20;;
3343;SDS011;1685;53.104;8.228;2022-09-01T02:07:49;3.20;;;1.93;;
3343;SDS011;1685;53.104;8.228;2022-09-01T02:10:19;1.53;;;1.50;;
3343;SDS011;1685;53.104;8.228;2022-09-01T02:12:47;1.43;;;1.33;;
3343;SDS011;1685;53.104;8.228;2022-09-01T02:15:14;1.40;;;1.40;;
3343;SDS011;1685;53.104;8.228;2022-09-01T02:17:42;3.63;;;1.63;;
3343;SDS011;1685;53.104;8.228;2022-09-01T02:20:11;1.60;;;1.60;;
3343;SDS011;1685;53.104;8.228;2022-09-01T02:22:40;1.90;;;1.80;;
3343;SDS011;1685;53.104;8.228;2022-09-01T02:25:08;1.80;;;1.70;;
3343;SDS011;1685;53.104;8.228;2022-09-01T02:27:36;1.93;;;1.50;;
3343;SDS011;1685;53.104;8.228;2022-09-01T02:30:03;1.80;;;1.70;;
3343;SDS011;1685;53.104;8.228;2022-09-01T02:32:36;1.70;;;1.60;;
3343;SDS011;1685;53.104;8.228;2022-09-01T02:35:04;1.63;;;1.53;;
3343;SDS011;1685;53.104;8.228;2022-09-01T02:37:34;1.70;;;1.60;;
3343;SDS011;1685;53.104;8.228;2022-09-01T02:40:02;1.77;;;1.67;;
3343;SDS011;1685;53.104;8.228;2022-09-01T02:42:29;2.20;;;1.80;;
3343;SDS011;1685;53.104;8.228;2022-09-01T02:44:56;1.53;;;1.47;;
3343;SDS011;1685;53.104;8.228;2022-09-01T02:47:22;1.63;;;1.53;;
3343;SDS011;1685;53.104;8.228;2022-09-01T02:49:53;1.77;;;1.67;;
3343;SDS011;1685;53.104;8.228;2022-09-01T02:52:22;1.43;;;1.33;;
3343;SDS011;1685;53.104;8.228;2022-09-01T02:54:49;1.80;;;1.70;;
3343;SDS011;1685;53.104;8.228;2022-09-01T02:57:16;1.93;;;1.83;;
3343;SDS011;1685;53.104;8.228;2022-09-01T02:59:42;1.53;;;1.43;;
3343;SDS011;1685;53.104;8.228;2022-09-01T03:02:11;1.97;;;1.87;;
3343;SDS011;1685;53.104;8.228;2022-09-01T03:04:38;1.50;;;1.50;;
3343;SDS011;1685;53.104;8.228;2022-09-01T03:07:07;1.90;;;1.80;;
3343;SDS011;1685;53.104;8.228;2022-09-01T03:09:33;2.00;;;1.90;;
3343;SDS011;1685;53.104;8.228;2022-09-01T03:12:01;1.57;;;1.47;;
3343;SDS011;1685;53.104;8.228;2022-09-01T03:14:31;8.00;;;1.50;;
3343;SDS011;1685;53.104;8.228;2022-09-01T03:16:58;1.90;;;1.80;;
3343;SDS011;1685;53.104;8.228;2022-09-01T03:19:25;1.87;;;1.77;;
3343;SDS011;1685;53.104;8.228;2022-09-01T03:22:07;2.20;;;2.10;;
3343;SDS011;1685;53.104;8.228;2022-09-01T03:24:34;2.13;;;2.03;;
3343;SDS011;1685;53.104;8.228;2022-09-01T03:27:01;2.97;;;1.67;;
3343;SDS011;1685;53.104;8.228;2022-09-01T03:29:28;2.33;;;1.50;;
3343;SDS011;1685;53.104;8.228;2022-09-01T03:31:54;1.87;;;1.77;;
3343;SDS011;1685;53.104;8.228;2022-09-01T03:34:21;1.73;;;1.63;;
3343;SDS011;1685;53.104;8.228;2022-09-01T03:36:48;1.50;;;1.40;;
3343;SDS011;1685;53.104;8.228;2022-09-01T03:39:16;1.67;;;1.57;;
3343;SDS011;1685;53.104;8.228;2022-09-01T03:41:43;3.70;;;1.73;;
3343;SDS011;1685;53.104;8.228;2022-09-01T03:44:10;2.93;;;1.50;;
3343;SDS011;1685;53.104;8.228;2022-09-01T03:46:40;4.40;;;2.40;;
3343;SDS011;1685;53.104;8.228;2022-09-01T03:49:07;3.47;;;2.10;;
3343;SDS011;1685;53.104;8.228;2022-09-01T03:51:37;2.53;;;2.27;;
3343;SDS011;1685;53.104;8.228;2022-09-01T03:54:04;3.30;;;2.03;;
3343;SDS011;1685;53.104;8.228;2022-09-01T03:56:33;3.00;;;1.87;;
3343;SDS011;1685;53.104;8.228;2022-09-01T03:59:00;2.93;;;2.17;;
3343;SDS011;1685;53.104;8.228;2022-09-01T04:01:27;1.90;;;1.80;;
3343;SDS011;1685;53.104;8.228;2022-09-01T04:03:56;1.90;;;1.90;;
3343;SDS011;1685;53.104;8.228;2022-09-01T04:06:25;1.50;;;1.50;;
3343;SDS011;1685;53.104;8.228;2022-09-01T04:08:54;2.17;;;2.07;;
3343;SDS011;1685;53.104;8.228;2022-09-01T04:11:26;3.40;;;2.00;;
3343;SDS011;1685;53.104;8.228;2022-09-01T04:13:56;3.00;;;1.90;;
3343;SDS011;1685;53.104;8.228;2022-09-01T04:16:23;2.40;;;2.30;;
3343;SDS011;1685;53.104;8.228;2022-09-01T04:19:09;2.10;;;2.00;;
3343;SDS011;1685;53.104;8.228;2022-09-01T04:21:45;3.57;;;2.20;;
3343;SDS011;1685;53.104;8.228;2022-09-01T04:24:14;3.80;;;2.50;;
3343;SDS011;1685;53.104;8.228;2022-09-01T04:26:43;2.60;;;1.93;;
3343;SDS011;1685;53.104;8.228;2022-09-01T04:29:12;4.50;;;2.07;;
3343;SDS011;1685;53.104;8.228;2022-09-01T04:31:39;3.10;;;2.63;;
3343;SDS011;1685;53.104;8.228;2022-09-01T04:34:06;2.17;;;2.07;;
3343;SDS011;1685;53.104;8.228;2022-09-01T04:36:37;2.43;;;2.33;;
3343;SDS011;1685;53.104;8.228;2022-09-01T04:39:05;2.30;;;2.10;;
3343;SDS011;1685;53.104;8.228;2022-09-01T04:41:35;2.13;;;2.03;;
3343;SDS011;1685;53.104;8.228;2022-09-01T04:44:03;2.10;;;2.00;;
3343;SDS011;1685;53.104;8.228;2022-09-01T04:46:34;3.77;;;2.20;;
3343;SDS011;1685;53.104;8.228;2022-09-01T04:49:06;6.13;;;2.17;;
3343;SDS011;1685;53.104;8.228;2022-09-01T04:51:36;2.30;;;2.10;;
3343;SDS011;1685;53.104;8.228;2022-09-01T04:54:04;2.30;;;2.20;;
3343;SDS011;1685;53.104;8.228;2022-09-01T04:56:38;4.00;;;2.30;;
3343;SDS011;1685;53.104;8.228;2022-09-01T04:59:05;5.07;;;2.50;;
3343;SDS011;1685;53.104;8.228;2022-09-01T05:01:37;2.53;;;2.33;;
3343;SDS011;1685;53.104;8.228;2022-09-01T05:04:09;2.90;;;2.60;;
3343;SDS011;1685;53.104;8.228;2022-09-01T05:06:39;2.43;;;2.23;;
3343;SDS011;1685;53.104;8.228;2022-09-01T05:09:07;9.37;;;2.70;;
3343;SDS011;1685;53.104;8.228;2022-09-01T05:11:35;4.03;;;2.70;;
3343;SDS011;1685;53.104;8.228;2022-09-01T05:14:03;3.70;;;2.80;;
3343;SDS011;1685;53.104;8.228;2022-09-01T05:16:31;4.30;;;2.57;;
3343;SDS011;1685;53.104;8.228;2022-09-01T05:19:01;3.10;;;2.57;;
3343;SDS011;1685;53.104;8.228;2022-09-01T05:21:28;3.10;;;2.50;;
3343;SDS011;1685;53.104;8.228;2022-09-01T05:23:56;4.70;;;2.70;;
3343;SDS011;1685;53.104;8.228;2022-09-01T05:26:26;5.43;;;2.53;;
3343;SDS011;1685;53.104;8.228;2022-09-01T05:28:57;2.47;;;2.37;;
3343;SDS011;1685;53.104;8.228;2022-09-01T05:31:26;2.90;;;2.43;;
3343;SDS011;1685;53.104;8.228;2022-09-01T05:33:59;5.97;;;2.57;;
3343;SDS011;1685;53.104;8.228;2022-09-01T05:36:27;3.87;;;2.80;;
3343;SDS011;1685;53.104;8.228;2022-09-01T05:38:57;2.60;;;2.40;;
3343;SDS011;1685;53.104;8.228;2022-09-01T05:41:24;5.60;;;2.53;;
3343;SDS011;1685;53.104;8.228;2022-09-01T05:43:52;3.87;;;2.20;;
3343;SDS011;1685;53.104;8.228;2022-09-01T05:46:20;12.53;;;4.93;;
3343;SDS011;1685;53.104;8.228;2022-09-01T05:48:51;3.83;;;2.43;;
3343;SDS011;1685;53.104;8.228;2022-09-01T05:51:21;3.20;;;2.63;;
3343;SDS011;1685;53.104;8.228;2022-09-01T05:53:50;8.10;;;2.43;;
3343;SDS011;1685;53.104;8.228;2022-09-01T05:56:20;2.67;;;2.47;;
3343;SDS011;1685;53.104;8.228;2022-09-01T05:58:48;2.70;;;2.50;;
3343;SDS011;1685;53.104;8.228;2022-09-01T06:01:15;6.70;;;2.80;;
3343;SDS011;1685;53.104;8.228;2022-09-01T06:03:46;5.90;;;2.77;;
3343;SDS011;1685;53.104;8.228;2022-09-01T06:06:14;2.50;;;2.40;;
3343;SDS011;1685;53.104;8.228;2022-09-01T06:08:43;4.50;;;3.10;;
3343;SDS011;1685;53.104;8.228;2022-09-01T06:11:14;3.93;;;3.03;;
3343;SDS011;1685;53.104;8.228;2022-09-01T06:13:42;2.70;;;2.50;;
3343;SDS011;1685;53.104;8.228;2022-09-01T06:16:11;8.23;;;2.70;;
3343;SDS011;1685;53.104;8.228;2022-09-01T06:18:38;2.90;;;2.40;;
3343;SDS011;1685;53.104;8.228;2022-09-01T06:21:07;3.77;;;2.47;;
3343;SDS011;1685;53.104;8.228;2022-09-01T06:23:38;2.67;;;2.50;;
3343;SDS011;1685;53.104;8.228;2022-09-01T06:26:08;3.13;;;2.63;;
3343;SDS011;1685;53.104;8.228;2022-09-01T06:28:42;2.30;;;2.10;;
3343;SDS011;1685;53.104;8.228;2022-09-01T06:31:09;5.00;;;2.50;;
3343;SDS011;1685;53.104;8.228;2022-09-01T06:33:37;4.10;;;2.47;;
3343;SDS011;1685;53.104;8.228;2022-09-01T06:36:04;8.93;;;2.60;;
3343;SDS011;1685;53.104;8.228;2022-09-01T06:38:33;2.70;;;2.50;;
3343;SDS011;1685;53.104;8.228;2022-09-01T06:41:01;3.10;;;2.70;;
3343;SDS011;1685;53.104;8.228;2022-09-01T06:43:33;5.93;;;2.87;;
3343;SDS011;1685;53.104;8.228;2022-09-01T06:46:01;2.83;;;2.57;;
3343;SDS011;1685;53.104;8.228;2022-09-01T06:48:28;2.20;;;2.00;;
3343;SDS011;1685;53.104;8.228;2022-09-01T06:50:57;3.63;;;2.80;;
3343;SDS011;1685;53.104;8.228;2022-09-01T06:53:27;5.10;;;3.00;;
3343;SDS011;1685;53.104;8.228;2022-09-01T06:55:55;3.37;;;2.90;;
3343;SDS011;1685;53.104;8.228;2022-09-01T06:58:22;4.27;;;2.30;;
3343;SDS011;1685;53.104;8.228;2022-09-01T07:00:50;8.40;;;2.30;;
3343;SDS011;1685;53.104;8.228;2022-09-01T07:03:17;12.03;;;2.50;;
3343;SDS011;1685;53.104;8.228;2022-09-01T07:05:46;5.80;;;2.37;;
3343;SDS011;1685;53.104;8.228;2022-09-01T07:08:16;2.40;;;2.20;;
3343;SDS011;1685;53.104;8.228;2022-09-01T07:10:47;3.47;;;2.40;;
3343;SDS011;1685;53.104;8.228;2022-09-01T07:13:18;10.03;;;2.10;;
3343;SDS011;1685;53.104;8.228;2022-09-01T07:15:48;11.77;;;2.27;;
3343;SDS011;1685;53.104;8.228;2022-09-01T07:18:18;3.90;;;1.90;;
3343;SDS011;1685;53.104;8.228;2022-09-01T07:20:46;2.30;;;1.90;;
3343;SDS011;1685;53.104;8.228;2022-09-01T07:23:15;2.47;;;2.27;;
3343;SDS011;1685;53.104;8.228;2022-09-01T07:25:45;3.23;;;2.03;;
3343;SDS011;1685;53.104;8.228;2022-09-01T07:28:14;6.40;;;2.30;;
3343;SDS011;1685;53.104;8.228;2022-09-01T07:30:43;5.50;;;2.00;;
3343;SDS011;1685;53.104;8.228;2022-09-01T07:33:12;2.20;;;1.97;;
3343;SDS011;1685;53.104;8.228;2022-09-01T07:35:41;1.87;;;1.77;;
3343;SDS011;1685;53.104;8.228;2022-09-01T07:38:08;6.20;;;1.80;;
3343;SDS011;1685;53.104;8.228;2022-09-01T07:40:35;4.20;;;2.10;;
3343;SDS011;1685;53.104;8.228;2022-09-01T07:43:03;2.53;;;1.87;;
3343;SDS011;1685;53.104;8.228;2022-09-01T07:45:33;3.83;;;1.87;;
3343;SDS011;1685;53.104;8.228;2022-09-01T07:48:02;1.97;;;1.87;;
3343;SDS011;1685;53.104;8.228;2022-09-01T07:50:32;8.13;;;1.70;;
3343;SDS011;1685;53.104;8.228;2022-09-01T07:53:02;7.80;;;2.17;;
3343;SDS011;1685;53.104;8.228;2022-09-01T07:55:29;2.50;;;2.10;;
3343;SDS011;1685;53.104;8.228;2022-09-01T07:57:57;4.43;;;2.97;;
3343;SDS011;1685;53.104;8.228;2022-09-01T08:00:24;2.87;;;1.60;;
3343;SDS011;1685;53.104;8.228;2022-09-01T08:02:52;3.43;;;1.50;;
3343;SDS011;1685;53.104;8.228;2022-09-01T08:05:19;3.30;;;1.70;;
3343;SDS011;1685;53.104;8.228;2022-09-01T08:07:50;1.77;;;1.37;;
3343;SDS011;1685;53.104;8.228;2022-09-01T08:10:19;5.47;;;1.50;;
3343;SDS011;1685;53.104;8.228;2022-09-01T08:12:46;1.60;;;1.50;;
3343;SDS011;1685;53.104;8.228;2022-09-01T08:15:13;1.50;;;1.40;;
3343;SDS011;1685;53.104;8.228;2022-09-01T08:17:41;1.30;;;1.20;;
3343;SDS011;1685;53.104;8.228;2022-09-01T08:20:08;1.97;;;1.10;;
3343;SDS011;1685;53.104;8.228;2022-09-01T08:22:36;1.63;;;1.30;;
3343;SDS011;1685;53.104;8.228;2022-09-01T08:25:04;3.03;;;1.30;;
3343;SDS011;1685;53.104;8.228;2022-09-01T08:27:32;1.37;;;1.30;;
3343;SDS011;1685;53.104;8.228;2022-09-01T08:30:02;3.03;;;1.67;;
3343;SDS011;1685;53.104;8.228;2022-09-01T08:32:31;2.30;;;1.30;;
3343;SDS011;1685;53.104;8.228;2022-09-01T08:34:58;2.33;;;1.27;;
3343;SDS011;1685;53.104;8.228;2022-09-01T08:37:26;4.20;;;1.13;;
3343;SDS011;1685;53.104;8.228;2022-09-01T08:39:53;3.80;;;1.07;;
3343;SDS011;1685;53.104;8.228;2022-09-01T08:42:23;3.27;;;1.40;;
3343;SDS011;1685;53.104;8.228;2022-09-01T08:45:07;1.40;;;1.30;;
3343;SDS011;1685;53.104;8.228;2022-09-01T08:47:40;1.67;;;0.90;;
3343;SDS011;1685;53.104;8.228;2022-09-01T08:50:07;2.23;;;1.10;;
3343;SDS011;1685;53.104;8.228;2022-09-01T08:52:37;2.60;;;1.23;;
3343;SDS011;1685;53.104;8.228;2022-09-01T08:55:08;5.50;;;1.30;;
3343;SDS011;1685;53.104;8.228;2022-09-01T08:57:41;2.20;;;1.00;;
3343;SDS011;1685;53.104;8.228;2022-09-01T09:00:12;3.53;;;1.30;;
3343;SDS011;1685;53.104;8.228;2022-09-01T09:02:45;3.93;;;1.10;;
3343;SDS011;1685;53.104;8.228;2022-09-01T09:05:29;1.20;;;1.00;;
3343;SDS011;1685;53.104;8.228;2022-09-01T09:08:12;1.47;;;1.00;;
3343;SDS011;1685;53.104;8.228;2022-09-01T09:10:47;3.10;;;1.30;;
3343;SDS011;1685;53.104;8.228;2022-09-01T09:13:23;2.10;;;0.90;;
3343;SDS011;1685;53.104;8.228;2022-09-01T09:16:01;0.80;;;0.80;;
3343;SDS011;1685;53.104;8.228;2022-09-01T09:18:36;3.03;;;1.17;;
3343;SDS011;1685;53.104;8.228;2022-09-01T09:21:11;1.13;;;1.03;;
3343;SDS011;1685;53.104;8.228;2022-09-01T09:23:44;2.17;;;0.83;;
3343;SDS011;1685;53.104;8.228;2022-09-01T09:26:13;2.20;;;1.00;;
3343;SDS011;1685;53.104;8.228;2022-09-01T09:28:44;0.80;;;0.80;;
3343;SDS011;1685;53.104;8.228;2022-09-01T09:31:29;1.37;;;1.20;;
3343;SDS011;1685;53.104;8.228;2022-09-01T09:33:58;2.57;;;0.80;;
3343;SDS011;1685;53.104;8.228;2022-09-01T09:36:28;4.30;;;1.37;;
3343;SDS011;1685;53.104;8.228;2022-09-01T09:39:02;0.80;;;0.80;;
3343;SDS011;1685;53.104;8.228;2022-09-01T09:41:34;3.60;;;1.90;;
3343;SDS011;1685;53.104;8.228;2022-09-01T09:44:03;3.00;;;1.00;;
3343;SDS011;1685;53.104;8.228;2022-09-01T09:46:41;4.70;;;1.43;;
3343;SDS011;1685;53.104;8.228;2022-09-01T09:49:11;1.80;;;0.90;;
3343;SDS011;1685;53.104;8.228;2022-09-01T09:51:44;0.97;;;0.90;;
3343;SDS011;1685;53.104;8.228;2022-09-01T09:54:14;1.10;;;1.00;;
3343;SDS011;1685;53.104;8.228;2022-09-01T09:56:44;3.93;;;1.00;;
3343;SDS011;1685;53.104;8.228;2022-09-01T09:59:20;2.90;;;0.90;;
3343;SDS011;1685;53.104;8.228;2022-09-01T10:01:54;1.77;;;1.07;;
3343;SDS011;1685;53.104;8.228;2022-09-01T10:04:30;1.13;;;0.80;;
3343;SDS011;1685;53.104;8.228;2022-09-01T10:07:00;1.33;;;1.10;;
3343;SDS011;1685;53.104;8.228;2022-09-01T10:09:35;0.80;;;0.80;;
3343;SDS011;1685;53.104;8.228;2022-09-01T10:12:03;4.07;;;1.30;;
3343;SDS011;1685;53.104;8.228;2022-09-01T10:14:32;4.10;;;0.97;;
3343;SDS011;1685;53.104;8.228;2022-09-01T10:17:10;1.10;;;0.97;;
3343;SDS011;1685;53.104;8.228;2022-09-01T10:19:41;5.33;;;0.80;;
3343;SDS011;1685;53.104;8.228;2022-09-01T10:22:13;1.37;;;1.00;;
3343;SDS011;1685;53.104;8.228;2022-09-01T10:24:40;1.37;;;0.73;;
3343;SDS011;1685;53.104;8.228;2022-09-01T10:27:09;2.43;;;0.70;;
3343;SDS011;1685;53.104;8.228;2022-09-01T10:29:42;3.03;;;1.00;;
3343;SDS011;1685;53.104;8.228;2022-09-01T10:32:15;1.13;;;0.90;;
3343;SDS011;1685;53.104;8.228;2022-09-01T10:34:45;2.20;;;1.00;;
3343;SDS011;1685;53.104;8.228;2022-09-01T10:37:12;1.13;;;0.80;;
3343;SDS011;1685;53.104;8.228;2022-09-01T10:42:38;6.60;;;1.00;;
3343;SDS011;1685;53.104;8.228;2022-09-01T10:45:07;1.30;;;1.20;;
3343;SDS011;1685;53.104;8.228;2022-09-01T10:47:44;4.60;;;0.80;;
3343;SDS011;1685;53.104;8.228;2022-09-01T10:50:25;2.10;;;0.80;;
3343;SDS011;1685;53.104;8.228;2022-09-01T10:52:59;1.83;;;0.90;;
3343;SDS011;1685;53.104;8.228;2022-09-01T10:55:33;2.93;;;1.00;;
3343;SDS011;1685;53.104;8.228;2022-09-01T11:00:55;1.17;;;0.70;;
3343;SDS011;1685;53.104;8.228;2022-09-01T11:03:47;0.70;;;0.70;;
3343;SDS011;1685;53.104;8.228;2022-09-01T11:09:26;4.57;;;0.90;;
3343;SDS011;1685;53.104;8.228;2022-09-01T11:12:11;1.27;;;0.80;;
3343;SDS011;1685;53.104;8.228;2022-09-01T11:14:48;1.00;;;0.87;;
3343;SDS011;1685;53.104;8.228;2022-09-01T11:17:17;2.10;;;1.00;;
3343;SDS011;1685;53.104;8.228;2022-09-01T11:19:54;0.90;;;0.90;;
3343;SDS011;1685;53.104;8.228;2022-09-01T11:22:30;2.50;;;0.90;;
3343;SDS011;1685;53.104;8.228;2022-09-01T11:27:59;1.17;;;0.80;;
3343;SDS011;1685;53.104;8.228;2022-09-01T11:30:44;1.00;;;0.83;;
3343;SDS011;1685;53.104;8.228;2022-09-01T11:33:26;1.17;;;0.90;;
3343;SDS011;1685;53.104;8.228;2022-09-01T11:36:06;1.53;;;1.00;;
3343;SDS011;1685;53.104;8.228;2022-09-01T11:38:41;0.60;;;0.60;;
3343;SDS011;1685;53.104;8.228;2022-09-01T11:41:19;1.80;;;0.83;;
3343;SDS011;1685;53.104;8.228;2022-09-01T11:43:48;1.30;;;0.90;;
3343;SDS011;1685;53.104;8.228;2022-09-01T11:46:18;1.50;;;0.80;;
3343;SDS011;1685;53.104;8.228;2022-09-01T11:48:49;0.97;;;0.80;;
3343;SDS011;1685;53.104;8.228;2022-09-01T11:51:18;2.20;;;0.80;;
3343;SDS011;1685;53.104;8.228;2022-09-01T11:53:46;1.30;;;0.90;;
3343;SDS011;1685;53.104;8.228;2022-09-01T11:56:15;4.20;;;0.97;;
3343;SDS011;1685;53.104;8.228;2022-09-01T11:58:44;2.40;;;0.80;;
3343;SDS011;1685;53.104;8.228;2022-09-01T12:01:12;1.33;;;0.70;;
3343;SDS011;1685;53.104;8.228;2022-09-01T12:03:42;1.40;;;0.90;;
3343;SDS011;1685;53.104;8.228;2022-09-01T12:06:11;1.53;;;1.10;;
3343;SDS011;1685;53.104;8.228;2022-09-01T12:08:50;2.20;;;0.80;;
3343;SDS011;1685;53.104;8.228;2022-09-01T12:11:22;1.10;;;1.00;;
3343;SDS011;1685;53.104;8.228;2022-09-01T12:13:55;0.70;;;0.70;;
3343;SDS011;1685;53.104;8.228;2022-09-01T12:16:24;1.03;;;0.87;;
3343;SDS011;1685;53.104;8.228;2022-09-01T12:18:52;1.27;;;0.60;;
3343;SDS011;1685;53.104;8.228;2022-09-01T12:21:24;4.13;;;0.90;;
3343;SDS011;1685;53.104;8.228;2022-09-01T12:24:08;0.80;;;0.80;;
3343;SDS011;1685;53.104;8.228;2022-09-01T12:26:37;1.80;;;0.80;;
3343;SDS011;1685;53.104;8.228;2022-09-01T12:29:04;0.83;;;0.80;;
3343;SDS011;1685;53.104;8.228;2022-09-01T12:31:32;2.00;;;0.80;;
3343;SDS011;1685;53.104;8.228;2022-09-01T12:33:59;4.60;;;0.80;;
3343;SDS011;1685;53.104;8.228;2022-09-01T12:36:30;0.70;;;0.70;;
3343;SDS011;1685;53.104;8.228;2022-09-01T12:41:46;2.00;;;0.70;;
3343;SDS011;1685;53.104;8.228;2022-09-01T12:44:28;1.23;;;0.80;;
3343;SDS011;1685;53.104;8.228;2022-09-01T12:46:56;0.80;;;0.80;;
3343;SDS011;1685;53.104;8.228;2022-09-01T12:49:25;0.80;;;0.80;;
3343;SDS011;1685;53.104;8.228;2022-09-01T12:52:10;0.93;;;0.80;;
3343;SDS011;1685;53.104;8.228;2022-09-01T12:54:50;0.63;;;0.63;;
3343;SDS011;1685;53.104;8.228;2022-09-01T12:57:25;2.20;;;0.80;;
3343;SDS011;1685;53.104;8.228;2022-09-01T13:00:08;2.80;;;0.97;;
3343;SDS011;1685;53.104;8.228;2022-09-01T13:02:42;6.47;;;1.20;;
3343;SDS011;1685;53.104;8.228;2022-09-01T13:08:01;1.20;;;0.93;;
3343;SDS011;1685;53.104;8.228;2022-09-01T13:10:31;0.83;;;0.70;;
3343;SDS011;1685;53.104;8.228;2022-09-01T13:13:02;1.70;;;1.00;;
3343;SDS011;1685;53.104;8.228;2022-09-01T13:15:30;1.00;;;0.60;;
3343;SDS011;1685;53.104;8.228;2022-09-01T13:17:57;0.67;;;0.67;;
3343;SDS011;1685;53.104;8.228;2022-09-01T13:20:24;1.70;;;0.80;;
3343;SDS011;1685;53.104;8.228;2022-09-01T13:22:51;5.60;;;0.90;;
3343;SDS011;1685;53.104;8.228;2022-09-01T13:25:20;1.10;;;1.00;;
3343;SDS011;1685;53.104;8.228;2022-09-01T13:27:48;4.67;;;1.47;;
3343;SDS011;1685;53.104;8.228;2022-09-01T13:30:17;0.87;;;0.80;;
3343;SDS011;1685;53.104;8.228;2022-09-01T13:32:46;0.80;;;0.80;;
3343;SDS011;1685;53.104;8.228;2022-09-01T13:35:14;1.13;;;0.90;;
3343;SDS011;1685;53.104;8.228;2022-09-01T13:37:43;2.53;;;0.87;;
3343;SDS011;1685;53.104;8.228;2022-09-01T13:40:10;1.70;;;1.00;;
3343;SDS011;1685;53.104;8.228;2022-09-01T13:42:41;4.73;;;0.90;;
3343;SDS011;1685;53.104;8.228;2022-09-01T13:45:08;3.40;;;0.90;;
3343;SDS011;1685;53.104;8.228;2022-09-01T13:47:37;0.87;;;0.87;;
3343;SDS011;1685;53.104;8.228;2022-09-01T13:50:04;11.90;;;2.10;;
3343;SDS011;1685;53.104;8.228;2022-09-01T13:52:32;0.70;;;0.70;;
3343;SDS011;1685;53.104;8.228;2022-09-01T13:54:59;1.73;;;0.73;;
3343;SDS011;1685;53.104;8.228;2022-09-01T13:57:26;1.90;;;0.60;;
3343;SDS011;1685;53.104;8.228;2022-09-01T13:59:56;0.70;;;0.70;;
3343;SDS011;1685;53.104;8.228;2022-09-01T14:02:23;2.10;;;0.80;;
3343;SDS011;1685;53.104;8.228;2022-09-01T14:04:50;3.63;;;0.97;;
3343;SDS011;1685;53.104;8.228;2022-09-01T14:07:17;1.00;;;0.90;;
3343;SDS011;1685;53.104;8.228;2022-09-01T14:09:44;0.80;;;0.80;;
3343;SDS011;1685;53.104;8.228;2022-09-01T14:12:11;2.10;;;0.97;;
3343;SDS011;1685;53.104;8.228;2022-09-01T14:14:39;2.70;;;0.80;;
3343;SDS011;1685;53.104;8.228;2022-09-01T14:17:07;3.13;;;0.80;;
3343;SDS011;1685;53.104;8.228;2022-09-01T14:19:34;1.93;;;0.80;;
3343;SDS011;1685;53.104;8.228;2022-09-01T14:22:01;1.33;;;1.23;;
3343;SDS011;1685;53.104;8.228;2022-09-01T14:24:30;1.10;;;0.70;;
3343;SDS011;1685;53.104;8.228;2022-09-01T14:26:57;2.10;;;0.90;;
3343;SDS011;1685;53.104;8.228;2022-09-01T14:29:24;5.13;;;1.00;;
3343;SDS011;1685;53.104;8.228;2022-09-01T14:31:51;1.43;;;0.70;;
3343;SDS011;1685;53.104;8.228;2022-09-01T14:34:22;4.43;;;1.00;;
3343;SDS011;1685;53.104;8.228;2022-09-01T14:36:49;0.90;;;0.90;;
3343;SDS011;1685;53.104;8.228;2022-09-01T14:39:17;1.73;;;0.97;;
3343;SDS011;1685;53.104;8.228;2022-09-01T14:41:44;3.13;;;1.10;;
3343;SDS011;1685;53.104;8.228;2022-09-01T14:44:11;1.10;;;1.00;;
3343;SDS011;1685;53.104;8.228;2022-09-01T14:46:38;2.13;;;0.90;;
3343;SDS011;1685;53.104;8.228;2022-09-01T14:49:05;1.00;;;0.90;;
3343;SDS011;1685;53.104;8.228;2022-09-01T14:51:34;4.07;;;1.13;;
3343;SDS011;1685;53.104;8.228;2022-09-01T14:54:02;0.90;;;0.80;;
3343;SDS011;1685;53.104;8.228;2022-09-01T14:56:30;3.10;;;0.90;;
3343;SDS011;1685;53.104;8.228;2022-09-01T14:58:57;1.03;;;0.93;;
3343;SDS011;1685;53.104;8.228;2022-09-01T15:01:26;2.77;;;1.00;;
3343;SDS011;1685;53.104;8.228;2022-09-01T15:03:54;3.90;;;0.90;;
3343;SDS011;1685;53.104;8.228;2022-09-01T15:06:21;0.70;;;0.70;;
3343;SDS011;1685;53.104;8.228;2022-09-01T15:08:49;2.20;;;1.00;;
3343;SDS011;1685;53.104;8.228;2022-09-01T15:11:17;0.90;;;0.90;;
3343;SDS011;1685;53.104;8.228;2022-09-01T15:13:45;0.70;;;0.70;;
3343;SDS011;1685;53.104;8.228;2022-09-01T15:16:17;2.50;;;0.80;;
3343;SDS011;1685;53.104;8.228;2022-09-01T15:18:46;4.10;;;1.00;;
3343;SDS011;1685;53.104;8.228;2022-09-01T15:21:17;2.77;;;1.20;;
3343;SDS011;1685;53.104;8.228;2022-09-01T15:23:45;0.90;;;0.90;;
3343;SDS011;1685;53.104;8.228;2022-09-01T15:26:16;2.00;;;0.90;;
3343;SDS011;1685;53.104;8.228;2022-09-01T15:28:43;1.03;;;0.93;;
3343;SDS011;1685;53.104;8.228;2022-09-01T15:31:11;2.33;;;1.13;;
3343;SDS011;1685;53.104;8.228;2022-09-01T15:33:39;1.17;;;1.00;;
3343;SDS011;1685;53.104;8.228;2022-09-01T15:36:06;5.20;;;1.13;;
3343;SDS011;1685;53.104;8.228;2022-09-01T15:38:34;1.37;;;1.20;;
3343;SDS011;1685;53.104;8.228;2022-09-01T15:41:01;1.10;;;1.00;;
3343;SDS011;1685;53.104;8.228;2022-09-01T15:43:29;2.27;;;1.03;;
3343;SDS011;1685;53.104;8.228;2022-09-01T15:45:56;1.20;;;0.87;;
3343;SDS011;1685;53.104;8.228;2022-09-01T15:48:26;1.40;;;1.30;;